Thunderstorms From: 26-05-2018 21:24 Until: 27-05-2018 15:00 warning for: Thunderstorms Level: Yellow info button

Although rather usual in this region, locally or potentially dangerous phenomena are expected. (such as local winds, summer thunderstorms, rising streams or high waves) Be aware and pay attention to the latest weather updates, especially if you carry out activities exposed to weather or close to a stream or shoreline. 


Meteo18 Weather Cam more information Meteo18 Weather Cam


warning for Thunderstorms more information blitzortung!


Rain radar more information rain snow radar


Visit our other weather sites:

Template documentation
and downloads

And another site



Weather Underground History page Text

Daily Summary for June 21, 2016 Units:  Metric    English   Both
« Previous Day
Next Day »
Daily Weekly Monthly Yearly Custom
  High: Low: Average:
Temperature: -17.8 °C -9.9 °C -7.7 °C
Dew Point: -17.8 °C -10.2 °C -8.6 °C
Humidity: Humidity % 76 % 91 %
Wind Speed: 0 km/h 0 km/h 2.3 km/h
Wind Gust: 0 km/h - -
Wind:- - WSW
Pressure: 0 hPa 34533.8 hPa -
Precipitation: 25.4 mm    
Historical Graphs
 
 
Tabular Data for June 21, 2016
Time Temperature Dew Point Pressure Wind Wind Speed Wind Gust Humidity Rainfall Rate (Hourly)
-17.8 °C -17.8 °C 0 hPa Calm     Humidity % 0 mm
00:02 -9 °C -9.3 °C 34554.1 hPa WSW 2.6 km/h 12.9 km/h 96 % 12.7 mm
00:07 -9 °C -9.3 °C 34554.1 hPa WSW 2.6 km/h 10.3 km/h 96 % 12.7 mm
00:12 -9 °C -9.3 °C 34554.1 hPa Calm   10.3 km/h 96 % 12.7 mm
00:17 -9 °C -9.3 °C 34554.1 hPa Calm   10.3 km/h 97 % 12.7 mm
00:22 -9 °C -9.3 °C 34554.1 hPa West 2.6 km/h 10.3 km/h 97 % 12.7 mm
00:32 -9 °C -9.3 °C 34554.1 hPa WSW 2.6 km/h 10.3 km/h 97 % 12.7 mm
00:42 -9 °C -9.3 °C 34554.1 hPa Calm   10.3 km/h 97 % 7.62 mm
00:47 -9 °C -9.3 °C 34554.1 hPa West 2.6 km/h 10.3 km/h 97 % 7.62 mm
00:52 -9.1 °C -9.3 °C 34554.1 hPa WSW 2.6 km/h 15.6 km/h 97 % 12.7 mm
00:57 -9.1 °C -9.3 °C 34554.1 hPa Calm   15.6 km/h 97 % 7.62 mm
01:02 -9.1 °C -9.4 °C 34554.1 hPa WNW 2.6 km/h 15.6 km/h 96 % 7.62 mm
01:12 -9.1 °C -9.4 °C 34554.1 hPa SW 2.6 km/h 7.7 km/h 97 % 7.62 mm
01:17 -9.1 °C -9.4 °C 34554.1 hPa SW 7.7 km/h 10.3 km/h 97 % 7.62 mm
01:22 -9.1 °C -9.4 °C 34554.1 hPa Calm   12.9 km/h 96 % 7.62 mm
01:27 -9.2 °C -9.5 °C 34554.1 hPa Calm   12.9 km/h 96 % 7.62 mm
01:32 -9.2 °C -9.5 °C 34554.1 hPa WSW 2.6 km/h 12.9 km/h 97 % 7.62 mm
01:37 -9.2 °C -9.5 °C 34554.1 hPa Calm   10.3 km/h 97 % 7.62 mm
01:42 -9.2 °C -9.5 °C 34554.1 hPa Calm   7.7 km/h 97 % 7.62 mm
01:47 -9.2 °C -9.5 °C 34554.1 hPa WSW 5.1 km/h 15.6 km/h 97 % 0 mm
01:52 -9.3 °C -9.6 °C 34554.1 hPa WSW 2.6 km/h 15.6 km/h 97 % 0 mm
01:57 -9.3 °C -9.6 °C 34554.1 hPa North 2.6 km/h 15.6 km/h 97 % 0 mm
02:07 -9.3 °C -9.6 °C 34554.1 hPa Calm   10.3 km/h 96 % 0 mm
02:12 -9.3 °C -9.6 °C 34554.1 hPa Calm   7.7 km/h 96 % 0 mm
02:17 -9.3 °C -9.6 °C 34554.1 hPa Calm   10.3 km/h 97 % 0 mm
02:22 -9.3 °C -9.6 °C 34554.1 hPa Calm   10.3 km/h 97 % 0 mm
02:27 -9.3 °C -9.6 °C 34554.1 hPa Calm   10.3 km/h 97 % 0 mm
02:32 -9.3 °C -9.6 °C 34554.1 hPa Calm   5.1 km/h 97 % 0 mm
02:37 -9.4 °C -9.7 °C 34554.1 hPa Calm   7.7 km/h 97 % 7.62 mm
02:42 -9.4 °C -9.7 °C 34544 hPa SSE 5.1 km/h 10.3 km/h 96 % 7.62 mm
02:47 -9.4 °C -9.8 °C 34544 hPa WSW 2.6 km/h 10.3 km/h 96 % 7.62 mm
02:57 -9.5 °C -9.8 °C 34554.1 hPa Calm   10.3 km/h 96 % 7.62 mm
03:07 -9.5 °C -9.8 °C 34554.1 hPa Calm   7.7 km/h 96 % 7.62 mm
03:12 -9.6 °C -9.9 °C 34554.1 hPa WSW 5.1 km/h 10.3 km/h 96 % 7.62 mm
03:17 -9.6 °C -9.9 °C 34544 hPa West 2.6 km/h 10.3 km/h 96 % 7.62 mm
03:22 -9.6 °C -9.9 °C 34544 hPa Calm   15.6 km/h 96 % 7.62 mm
03:32 -9.7 °C -10 °C 34533.8 hPa West 5.1 km/h 15.6 km/h 96 % 7.62 mm
03:37 -9.7 °C -10 °C 34544 hPa WSW 2.6 km/h 15.6 km/h 96 % 7.62 mm
03:42 -9.7 °C -9.9 °C 34544 hPa West 2.6 km/h 15.6 km/h 97 % 7.62 mm
03:47 -9.7 °C -9.9 °C 34544 hPa WSW 5.1 km/h 15.6 km/h 97 % 7.62 mm
03:52 -9.7 °C -9.9 °C 34544 hPa SW 5.1 km/h 10.3 km/h 97 % 7.62 mm
03:57 -9.7 °C -9.9 °C 34544 hPa Calm   10.3 km/h 97 % 7.62 mm
04:02 -9.7 °C -9.9 °C 34544 hPa Calm   10.3 km/h 97 % 7.62 mm
04:07 -9.7 °C -9.9 °C 34544 hPa Calm   10.3 km/h 97 % 12.7 mm
04:12 -9.7 °C -10 °C 34544 hPa WSW 2.6 km/h 5.1 km/h 97 % 12.7 mm
04:17 -9.7 °C -10 °C 34544 hPa Calm   5.1 km/h 97 % 12.7 mm
04:22 -9.7 °C -10 °C 34544 hPa Calm   5.1 km/h 97 % 12.7 mm
04:27 -9.7 °C -10 °C 34544 hPa WSW 2.6 km/h 10.3 km/h 97 % 7.62 mm
04:37 -9.8 °C -10.1 °C 34544 hPa Calm   10.3 km/h 97 % 7.62 mm
04:42 -9.8 °C -10.1 °C 34533.8 hPa WSW 7.7 km/h 10.3 km/h 97 % 7.62 mm
04:47 -9.8 °C -10.1 °C 34533.8 hPa West 5.1 km/h 15.6 km/h 97 % 7.62 mm
04:52 -9.8 °C -10.1 °C 34533.8 hPa Calm   15.6 km/h 97 % 7.62 mm
05:02 -9.8 °C -10.1 °C 34533.8 hPa Calm   15.6 km/h 97 % 7.62 mm
05:12 -9.8 °C -10.1 °C 34533.8 hPa West 5.1 km/h 15.6 km/h 97 % 0 mm
05:22 -9.8 °C -10.1 °C 34544 hPa Calm   10.3 km/h 97 % 0 mm
05:32 -9.9 °C -10.2 °C 34533.8 hPa Calm   10.3 km/h 97 % 0 mm
05:42 -9.9 °C -10.2 °C 34533.8 hPa West 2.6 km/h 10.3 km/h 97 % 0 mm
05:52 -9.9 °C -10.2 °C 34544 hPa Calm   12.9 km/h 97 % 0 mm
06:02 -9.8 °C -10.1 °C 34544 hPa WSW 2.6 km/h 12.9 km/h 97 % 0 mm
06:12 -9.8 °C -10.1 °C 34544 hPa West 5.1 km/h 10.3 km/h 97 % 0 mm
06:17 -9.8 °C -10.1 °C 34544 hPa West 2.6 km/h 10.3 km/h 97 % 0 mm
06:22 -9.8 °C -10.1 °C 34544 hPa Calm   10.3 km/h 97 % 0 mm
06:42 -9.8 °C -10.1 °C 34544 hPa Calm   10.3 km/h 97 % 0 mm
06:47 -9.8 °C -10.1 °C 34544 hPa SW 5.1 km/h 15.6 km/h 97 % 0 mm
06:52 -9.8 °C -10.1 °C 34544 hPa Calm   15.6 km/h 97 % 0 mm
07:02 -9.8 °C -10.1 °C 34544 hPa SW 5.1 km/h 15.6 km/h 97 % 0 mm
07:12 -9.8 °C -10.1 °C 34544 hPa WSW 2.6 km/h 10.3 km/h 97 % 0 mm
07:17 -9.7 °C -10 °C 34544 hPa SW 2.6 km/h 12.9 km/h 97 % 0 mm
07:22 -9.7 °C -9.8 °C 34544 hPa Calm   12.9 km/h 98 % 0 mm
07:32 -9.6 °C -9.8 °C 34544 hPa WSW 5.1 km/h 12.9 km/h 98 % 0 mm
07:42 -9.6 °C -9.9 °C 34544 hPa SW 5.1 km/h 12.9 km/h 97 % 7.62 mm
07:52 -9.6 °C -9.8 °C 34544 hPa Calm   12.9 km/h 97 % 7.62 mm
08:02 -9.6 °C -9.8 °C 34554.1 hPa West 2.6 km/h 15.6 km/h 97 % 7.62 mm
08:12 -9.6 °C -9.8 °C 34554.1 hPa WSW 2.6 km/h 12.9 km/h 97 % 7.62 mm
08:17 -9.6 °C -9.8 °C 34554.1 hPa WSW 5.1 km/h 12.9 km/h 97 % 7.62 mm
08:22 -9.6 °C -9.8 °C 34554.1 hPa Calm   12.9 km/h 97 % 7.62 mm
08:32 -9.5 °C -9.8 °C 34554.1 hPa WSW 2.6 km/h 15.6 km/h 97 % 7.62 mm
08:42 -9.4 °C -9.7 °C 34554.1 hPa Calm   15.6 km/h 97 % 0 mm
08:47 -9.4 °C -9.7 °C 34554.1 hPa SW 2.6 km/h 12.9 km/h 97 % 0 mm
08:52 -9.3 °C -9.6 °C 34554.1 hPa WSW 5.1 km/h 12.9 km/h 97 % 0 mm
09:02 -9.3 °C -9.6 °C 34554.1 hPa WSW 5.1 km/h 12.9 km/h 97 % 0 mm
09:12 -9.3 °C -9.6 °C 34554.1 hPa West 10.3 km/h 12.9 km/h 97 % 0 mm
09:22 -9.3 °C -9.6 °C 34567.7 hPa WSW 5.1 km/h 12.9 km/h 97 % 0 mm
09:32 -9.2 °C -9.5 °C 34567.7 hPa WSW 7.7 km/h 15.6 km/h 97 % 0 mm
09:42 -9.2 °C -9.4 °C 34567.7 hPa WSW 7.7 km/h 10.3 km/h 97 % 0 mm
09:52 -9.1 °C -9.4 °C 34567.7 hPa WSW 5.1 km/h 12.9 km/h 97 % 0 mm
09:57 -9.1 °C -9.4 °C 34567.7 hPa WSW 7.7 km/h 12.9 km/h 97 % 0 mm
10:02 -9.1 °C -9.4 °C 34577.8 hPa West 2.6 km/h 15.6 km/h 97 % 0 mm
10:07 -9.1 °C -9.3 °C 34577.8 hPa WSW 5.1 km/h 15.6 km/h 97 % 0 mm
10:12 -9 °C -9.3 °C 34577.8 hPa WNW 2.6 km/h 15.6 km/h 97 % 0 mm
10:17 -8.9 °C -9.2 °C 34577.8 hPa WSW 7.7 km/h 12.9 km/h 97 % 0 mm
10:22 -8.9 °C -9.2 °C 34577.8 hPa SW 2.6 km/h 12.9 km/h 97 % 0 mm
10:32 -8.8 °C -9.1 °C 34577.8 hPa SSW 5.1 km/h 18.2 km/h 97 % 0 mm
10:37 -8.8 °C -9.1 °C 34577.8 hPa Calm   18.2 km/h 96 % 0 mm
10:42 -8.7 °C -9.1 °C 34577.8 hPa WSW 7.7 km/h 18.2 km/h 96 % 0 mm
10:47 -8.7 °C -9.1 °C 34577.8 hPa WSW 2.6 km/h 18.2 km/h 96 % 0 mm
10:52 -8.7 °C -9 °C 34577.8 hPa WSW 10.3 km/h 15.6 km/h 96 % 0 mm
10:57 -8.7 °C -9.1 °C 34577.8 hPa SW 5.1 km/h 15.6 km/h 96 % 0 mm
11:02 -8.7 °C -9 °C 34577.8 hPa WSW 2.6 km/h 15.6 km/h 96 % 0 mm
11:07 -8.6 °C -9 °C 34591.4 hPa WSW 2.6 km/h 15.6 km/h 95 % 0 mm
11:12 -8.5 °C -8.9 °C 34591.4 hPa WSW 2.6 km/h 15.6 km/h 95 % 0 mm
11:17 -8.4 °C -8.9 °C 34591.4 hPa West 2.6 km/h 12.9 km/h 95 % 0 mm
11:22 -8.4 °C -8.8 °C 34591.4 hPa WSW 5.1 km/h 12.9 km/h 95 % 0 mm
11:32 -8.2 °C -8.7 °C 34577.8 hPa WSW 7.7 km/h 15.6 km/h 95 % 0 mm
11:37 -8.2 °C -8.6 °C 34577.8 hPa WSW 7.7 km/h 15.6 km/h 95 % 0 mm
11:42 -8.2 °C -8.8 °C 34591.4 hPa SSW 2.6 km/h 10.3 km/h 94 % 0 mm
11:47 -8.2 °C -8.8 °C 34577.8 hPa SW 5.1 km/h 12.9 km/h 94 % 0 mm
11:52 -8.2 °C -8.7 °C 34577.8 hPa SSW 2.6 km/h 12.9 km/h 94 % 0 mm
12:02 -8 °C -8.6 °C 34577.8 hPa WSW 5.1 km/h 18.2 km/h 93 % 0 mm
12:12 -7.9 °C -8.6 °C 34577.8 hPa SW 5.1 km/h 12.9 km/h 93 % 0 mm
12:17 -7.9 °C -8.6 °C 34577.8 hPa WSW 7.7 km/h 12.9 km/h 93 % 0 mm
12:22 -7.9 °C -8.5 °C 34577.8 hPa SW 10.3 km/h 12.9 km/h 93 % 0 mm
12:27 -7.8 °C -8.4 °C 34577.8 hPa West 2.6 km/h 12.9 km/h 93 % 0 mm
12:32 -7.8 °C -8.6 °C 34577.8 hPa WSW 5.1 km/h 12.9 km/h 92 % 0 mm
12:42 -7.7 °C -8.4 °C 34577.8 hPa Calm   12.9 km/h 93 % 0 mm
12:47 -7.7 °C -8.3 °C 34577.8 hPa SW 7.7 km/h 18.2 km/h 93 % 0 mm
12:52 -7.6 °C -8.3 °C 34577.8 hPa WSW 5.1 km/h 20.8 km/h 92 % 0 mm
13:02 -7.4 °C -8.3 °C 34577.8 hPa WSW 5.1 km/h 20.8 km/h 91 % 0 mm
13:12 -7.1 °C -8.1 °C 34577.8 hPa SW 2.6 km/h 18.2 km/h 90 % 0 mm
13:17 -6.9 °C -7.9 °C 34577.8 hPa WSW 2.6 km/h 18.2 km/h 89 % 0 mm
13:22 -6.8 °C -8 °C 34577.8 hPa West 2.6 km/h 15.6 km/h 87 % 0 mm
13:27 -6.7 °C -7.8 °C 34577.8 hPa SW 5.1 km/h 15.6 km/h 88 % 0 mm
13:32 -6.7 °C -7.9 °C 34577.8 hPa Calm   18.2 km/h 87 % 0 mm
13:42 -6.7 °C -7.8 °C 34567.7 hPa WSW 7.7 km/h 18.2 km/h 88 % 0 mm
13:47 -6.7 °C -7.9 °C 34577.8 hPa SW 7.7 km/h 18.2 km/h 87 % 0 mm
13:52 -6.6 °C -7.8 °C 34577.8 hPa WSW 2.6 km/h 18.2 km/h 87 % 0 mm
13:57 -6.4 °C -7.7 °C 34577.8 hPa Calm   12.9 km/h 87 % 0 mm
14:02 -6.4 °C -7.7 °C 34567.7 hPa WSW 7.7 km/h 12.9 km/h 86 % 0 mm
14:12 -5.9 °C -7.4 °C 34567.7 hPa SW 2.6 km/h 20.8 km/h 85 % 0 mm
14:17 -5.8 °C -7.1 °C 34567.7 hPa West 7.7 km/h 20.8 km/h 86 % 0 mm
14:22 -5.7 °C -7.5 °C 34567.7 hPa WSW 7.7 km/h 12.9 km/h 82 % 0 mm
14:27 -5.7 °C -7.2 °C 34577.8 hPa Calm   12.9 km/h 85 % 0 mm
14:32 -5.6 °C -7.2 °C 34577.8 hPa WSW 7.7 km/h 12.9 km/h 83 % 0 mm
14:37 -5.6 °C -7.4 °C 34577.8 hPa SSW 5.1 km/h 12.9 km/h 82 % 0 mm
14:42 -5.6 °C -7.5 °C 34577.8 hPa WSW 2.6 km/h 15.6 km/h 81 % 0 mm
14:47 -5.7 °C -7.5 °C 34577.8 hPa Calm   15.6 km/h 82 % 0 mm
14:52 -5.7 °C -7.5 °C 34577.8 hPa Calm   15.6 km/h 82 % 0 mm
14:57 -5.8 °C -7.5 °C 34577.8 hPa SW 7.7 km/h 15.6 km/h 83 % 0 mm
15:02 -5.9 °C -7.6 °C 34577.8 hPa Calm   10.3 km/h 83 % 0 mm
15:12 -5.9 °C -7.4 °C 34577.8 hPa Calm   12.9 km/h 84 % 0 mm
15:17 -5.8 °C -7.4 °C 34577.8 hPa WSW 2.6 km/h 12.9 km/h 83 % 0 mm
15:22 -5.6 °C -7.2 °C 34567.7 hPa WSW 5.1 km/h 10.3 km/h 84 % 0 mm
15:32 -5.7 °C -7.4 °C 34567.7 hPa WSW 7.7 km/h 10.3 km/h 82 % 0 mm
15:37 -5.6 °C -7.3 °C 34567.7 hPa WSW 7.7 km/h 15.6 km/h 83 % 0 mm
15:42 -5.4 °C -7.2 °C 34577.8 hPa WSW 5.1 km/h 15.6 km/h 82 % 0 mm
15:47 -5.4 °C -7.2 °C 34567.7 hPa West 2.6 km/h 15.6 km/h 82 % 0 mm
15:52 -5.4 °C -7.2 °C 34567.7 hPa SW 5.1 km/h 12.9 km/h 82 % 0 mm
15:57 -5.3 °C -7.3 °C 34567.7 hPa WSW 2.6 km/h 12.9 km/h 80 % 0 mm
16:02 -5.4 °C -7.3 °C 34567.7 hPa West 2.6 km/h 12.9 km/h 81 % 0 mm
16:12 -5.5 °C -7.3 °C 34577.8 hPa Calm   10.3 km/h 82 % 0 mm
16:17 -5.3 °C -7 °C 34567.7 hPa Calm   10.3 km/h 83 % 0 mm
16:22 -5.2 °C -7.1 °C 34567.7 hPa Calm   10.3 km/h 81 % 0 mm
16:32 -4.9 °C -7.1 °C 34567.7 hPa WSW 2.6 km/h 7.7 km/h 79 % 0 mm
16:42 -5.1 °C -7.3 °C 34567.7 hPa Calm   18.2 km/h 78 % 0 mm
16:47 -5.1 °C -7.2 °C 34567.7 hPa Calm   18.2 km/h 79 % 0 mm
16:52 -5.2 °C -7.4 °C 34577.8 hPa SW 5.1 km/h 18.2 km/h 78 % 0 mm
16:57 -5.2 °C -7.1 °C 34567.7 hPa WSW 2.6 km/h 12.9 km/h 81 % 0 mm
17:02 -4.9 °C -6.8 °C 34567.7 hPa Calm   12.9 km/h 81 % 0 mm
17:12 -4.5 °C -7 °C 34567.7 hPa West 2.6 km/h 7.7 km/h 76 % 0 mm
17:17 -4.6 °C -6.9 °C 34567.7 hPa Calm   7.7 km/h 78 % 0 mm
17:22 -4.8 °C -7.2 °C 34577.8 hPa SW 2.6 km/h 7.7 km/h 77 % 0 mm
17:27 -5 °C -7.1 °C 34567.7 hPa Calm   7.7 km/h 79 % 0 mm
17:32 -5.1 °C -7.2 °C 34567.7 hPa WSW 2.6 km/h 7.7 km/h 79 % 0 mm
17:37 -5.1 °C -7.1 °C 34567.7 hPa Calm   10.3 km/h 80 % 0 mm
17:42 -5.2 °C -7.2 °C 34567.7 hPa Calm   10.3 km/h 80 % 0 mm
17:47 -5.2 °C -7.2 °C 34577.8 hPa Calm   10.3 km/h 80 % 0 mm
17:52 -5.3 °C -7.3 °C 34577.8 hPa Calm   2.6 km/h 80 % 0 mm
18:02 -5.4 °C -7.3 °C 34577.8 hPa Calm   2.6 km/h 81 % 0 mm
18:12 -5.4 °C -7.2 °C 34567.7 hPa Calm   2.6 km/h 82 % 0 mm
18:17 -5.4 °C -7.3 °C 34567.7 hPa Calm   2.6 km/h 81 % 0 mm
18:22 -5.3 °C -7.1 °C 34577.8 hPa Calm   2.6 km/h 82 % 0 mm
18:27 -5.3 °C -7.3 °C 34567.7 hPa Calm   2.6 km/h 80 % 0 mm
18:32 -5.2 °C -7.2 °C 34567.7 hPa Calm   5.1 km/h 80 % 0 mm
18:42 -5.2 °C -7.2 °C 34567.7 hPa Calm   2.6 km/h 80 % 0 mm
18:47 -5.1 °C -7.2 °C 34567.7 hPa Calm   2.6 km/h 79 % 0 mm
18:52 -5.1 °C -7.3 °C 34567.7 hPa Calm   2.6 km/h 78 % 0 mm
18:57 -5.2 °C -7.3 °C 34567.7 hPa Calm   2.6 km/h 79 % 0 mm
19:02 -5.2 °C -7.2 °C 34567.7 hPa Calm   2.6 km/h 80 % 0 mm
19:12 -5.3 °C -7.2 °C 34567.7 hPa Calm   2.6 km/h 81 % 0 mm
19:17 -5.3 °C -7.3 °C 34567.7 hPa Calm   2.6 km/h 80 % 0 mm
19:22 -5.3 °C -7.2 °C 34567.7 hPa Calm   2.6 km/h 81 % 0 mm
19:32 -5.4 °C -7.3 °C 34567.7 hPa Calm   2.6 km/h 81 % 0 mm
19:37 -5.5 °C -7.3 °C 34567.7 hPa Calm   2.6 km/h 82 % 0 mm
19:42 -5.6 °C -7.4 °C 34567.7 hPa SW 2.6 km/h 2.6 km/h 82 % 0 mm
19:47 -5.6 °C -7.3 °C 34567.7 hPa Calm   2.6 km/h 83 % 0 mm
19:52 -5.6 °C -7.3 °C 34567.7 hPa Calm   2.6 km/h 82 % 0 mm
19:57 -5.6 °C -7.1 °C 34567.7 hPa Calm   2.6 km/h 84 % 0 mm
20:02 -5.6 °C -7.3 °C 34567.7 hPa Calm   2.6 km/h 82 % 0 mm
20:07 -5.6 °C -7.2 °C 34567.7 hPa Calm   2.6 km/h 83 % 0 mm
20:12 -5.5 °C -7.2 °C 34567.7 hPa Calm     83 % 0 mm
20:17 -5.5 °C -7.1 °C 34567.7 hPa Calm     84 % 0 mm
20:22 -5.5 °C -7.1 °C 34567.7 hPa Calm     84 % 0 mm
20:32 -5.6 °C -6.9 °C 34567.7 hPa Calm     86 % 0 mm
20:37 -5.6 °C -6.9 °C 34567.7 hPa Calm     86 % 0 mm
20:42 -5.6 °C -6.9 °C 34567.7 hPa Calm     87 % 0 mm
20:47 -5.7 °C -6.9 °C 34567.7 hPa Calm     87 % 0 mm
20:52 -5.7 °C -7 °C 34567.7 hPa Calm     87 % 0 mm
20:57 -5.8 °C -6.9 °C 34567.7 hPa Calm     88 % 0 mm
21:02 -5.8 °C -7 °C 34567.7 hPa Calm     88 % 0 mm
21:12 -5.9 °C -7 °C 34567.7 hPa Calm     89 % 0 mm
21:17 -6 °C -7.1 °C 34567.7 hPa Calm     89 % 0 mm
21:22 -6.1 °C -7 °C 34567.7 hPa Calm     90 % 0 mm
21:32 -6.2 °C -7.1 °C 34567.7 hPa Calm     90 % 0 mm
21:37 -6.2 °C -7.2 °C 34567.7 hPa Calm     90 % 0 mm
21:47 -6.4 °C -7.3 °C 34567.7 hPa Calm     91 % 0 mm
21:57 -6.6 °C -7.3 °C 34577.8 hPa Calm     92 % 0 mm
22:02 -6.7 °C -7.4 °C 34577.8 hPa Calm     92 % 0 mm
22:12 -6.9 °C -7.6 °C 34577.8 hPa Calm     92 % 0 mm
22:17 -7.1 °C -7.8 °C 34577.8 hPa Calm     92 % 0 mm
22:22 -7.2 °C -7.8 °C 34577.8 hPa Calm     93 % 0 mm
22:27 -7.3 °C -7.9 °C 34577.8 hPa Calm     93 % 0 mm
22:32 -7.4 °C -8.1 °C 34577.8 hPa Calm     93 % 0 mm
22:37 -7.6 °C -8.2 °C 34577.8 hPa Calm     93 % 0 mm
22:47 -7.7 °C -8.2 °C 34577.8 hPa Calm     94 % 0 mm
22:52 -7.7 °C -8.3 °C 34577.8 hPa Calm     94 % 0 mm
23:02 -7.9 °C -8.5 °C 34577.8 hPa Calm     94 % 0 mm
23:12 -8.2 °C -8.7 °C 34577.8 hPa Calm     94 % 0 mm
23:17 -8.2 °C -8.6 °C 34577.8 hPa Calm     95 % 0 mm
23:22 -8.2 °C -8.7 °C 34577.8 hPa Calm     95 % 0 mm
23:32 -8.3 °C -8.7 °C 34577.8 hPa Calm     95 % 0 mm
23:37 -8.4 °C -8.8 °C 34577.8 hPa Calm     95 % 0 mm
23:42 -8.4 °C -8.9 °C 34577.8 hPa Calm     95 % 0 mm
23:47 -8.4 °C -8.8 °C 34577.8 hPa Calm     96 % 0 mm
23:52 -8.5 °C -8.8 °C 34591.4 hPa Calm     96 % 0 mm
23:57 -8.4 °C -8.8 °C 34591.4 hPa Calm     96 % 0 mm
Meteo18
Compliments of Weather Underground - 4 mb

Script developed by  Jim McMurry - jmcmurry@mwt.net Adapted for the template by  Wim van der Kuil - Leuven-Template.eu

You find our weather info also at:

European Weather Network

Weather Underground

Equipment we use:

Weather-station
Davis Vue

Weather-program
Meteobridge

Weather-server
Raspberry PI 2 B+

Provider
1 and 1

Davis Vue

Meteobridge

Raspberry PI 2 B+

1 and 1